Time;durP1;ratioP1;P1;durP2;ratioP2;P2;SDS_P1;SDS_P2;PMS_P1;PMS_P2;Temp;Humidity;BMP_temperature;BMP_pressure;BME280_temperature;BME280_humidity;BME280_pressure;Samples;Min_cycle;Max_cycle;Signal;HPM_P1;HPM_P2
2022/07/08 00:02:57;;;;;;;1.88;1.10;;;;;;;15.99;83.65;99094.63;5024285;28;20115;-62
2022/07/08 00:05:41;;;;;;;2.47;1.25;;;;;;;16.09;83.04;99099.97;5034822;28;20053;-63
2022/07/08 00:08:27;;;;;;;2.00;1.10;;;;;;;16.07;83.60;99096.66;5048012;28;20091;-63
2022/07/08 00:11:12;;;;;;;1.40;1.10;;;;;;;16.13;83.90;99097.91;5028386;28;20033;-62
2022/07/08 00:13:57;;;;;;;3.22;1.00;;;;;;;16.12;83.05;99094.41;5043752;28;20516;-62
2022/07/08 00:16:43;;;;;;;1.40;0.88;;;;;;;16.18;82.68;99102.78;5034716;28;20382;-62
2022/07/08 00:19:27;;;;;;;1.92;0.82;;;;;;;16.24;83.15;99107.53;5020728;28;20077;-63
2022/07/08 00:22:12;;;;;;;1.08;0.80;;;;;;;16.23;83.47;99097.94;5034772;28;20060;-62
2022/07/08 00:24:57;;;;;;;1.25;1.00;;;;;;;16.04;82.92;99102.19;5032165;28;20049;-62
2022/07/08 00:27:42;;;;;;;2.58;0.90;;;;;;;15.98;83.39;99108.84;5021089;28;20429;-63
2022/07/08 00:30:27;;;;;;;2.45;1.10;;;;;;;16.10;83.22;99111.38;5030551;28;20517;-63
2022/07/08 00:33:11;;;;;;;1.35;0.75;;;;;;;16.04;84.16;99106.63;5025192;28;20124;-63
2022/07/08 00:35:56;;;;;;;1.98;0.98;;;;;;;16.19;83.59;99110.56;5040764;28;20116;-64
2022/07/08 00:38:41;;;;;;;1.67;0.73;;;;;;;16.13;84.53;99104.03;5034832;28;20045;-64
2022/07/08 00:41:26;;;;;;;1.45;0.90;;;;;;;16.10;84.13;99106.09;5029650;28;20054;-63
2022/07/08 00:44:10;;;;;;;1.15;0.90;;;;;;;15.92;86.01;99106.69;5037946;28;20351;-63
2022/07/08 00:46:56;;;;;;;1.60;1.02;;;;;;;16.10;85.97;99106.09;5014687;28;20092;-64
2022/07/08 00:49:41;;;;;;;0.90;0.80;;;;;;;15.97;85.58;99090.44;5047894;28;20049;-63
2022/07/08 00:52:26;;;;;;;1.10;0.90;;;;;;;15.91;86.38;99106.81;5033893;28;20049;-63
2022/07/08 00:55:11;;;;;;;1.73;1.20;;;;;;;16.02;85.76;99096.19;5035132;28;20068;-62
2022/07/08 00:57:56;;;;;;;2.80;1.08;;;;;;;16.09;86.51;99092.03;5034054;28;20076;-64
2022/07/08 01:00:41;;;;;;;1.45;1.10;;;;;;;16.03;86.22;99092.56;5019482;28;20073;-63
2022/07/08 01:03:27;;;;;;;1.60;1.00;;;;;;;15.96;86.23;99094.06;5023828;28;20563;-63
2022/07/08 01:06:12;;;;;;;1.25;0.90;;;;;;;16.04;85.96;99094.28;5026976;28;20050;-63
2022/07/08 01:08:58;;;;;;;1.98;0.90;;;;;;;16.17;86.36;99095.84;5012489;28;20545;-63
2022/07/08 01:11:46;;;;;;;1.27;0.93;;;;;;;16.05;85.51;99089.81;5014465;28;20041;-63
2022/07/08 01:14:31;;;;;;;1.20;1.10;;;;;;;15.93;86.66;99095.16;5013907;28;20110;-63
2022/07/08 01:17:15;;;;;;;1.00;0.90;;;;;;;16.06;85.64;99087.03;5038826;28;20074;-63
2022/07/08 01:20:00;;;;;;;3.60;1.20;;;;;;;16.06;85.61;99091.50;5028274;28;20123;-63
2022/07/08 01:22:45;;;;;;;0.93;0.73;;;;;;;16.00;85.38;99093.69;5022806;28;20046;-63
2022/07/08 01:25:30;;;;;;;1.83;1.45;;;;;;;15.92;85.99;99084.72;5033930;28;20172;-63
2022/07/08 01:28:16;;;;;;;1.95;0.98;;;;;;;16.01;86.40;99090.06;5046128;28;20061;-62
2022/07/08 01:31:03;;;;;;;1.35;0.70;;;;;;;15.90;86.92;99082.19;5046904;28;20079;-62
2022/07/08 01:33:48;;;;;;;1.00;0.90;;;;;;;16.07;86.50;99086.06;5027566;28;20034;-62
2022/07/08 01:36:33;;;;;;;1.25;0.85;;;;;;;16.15;87.15;99085.41;5035049;28;20523;-63
2022/07/08 01:39:18;;;;;;;2.55;1.00;;;;;;;16.16;85.00;99080.97;5052038;28;20440;-62
2022/07/08 01:42:03;;;;;;;1.90;1.15;;;;;;;16.18;85.95;99079.00;5012961;28;20065;-63
2022/07/08 01:44:48;;;;;;;1.63;1.08;;;;;;;16.18;86.05;99079.84;5013367;28;20042;-63
2022/07/08 01:47:33;;;;;;;1.00;0.80;;;;;;;16.13;87.19;99082.03;5015943;28;20046;-63
2022/07/08 01:50:18;;;;;;;1.48;0.80;;;;;;;16.21;87.07;99078.72;5016745;28;20106;-63
2022/07/08 01:53:03;;;;;;;1.10;0.82;;;;;;;16.09;86.80;99085.94;5033419;28;20463;-63
2022/07/08 01:55:49;;;;;;;1.67;1.10;;;;;;;16.05;86.28;99082.72;5032712;28;20050;-63
2022/07/08 01:58:35;;;;;;;2.75;1.13;;;;;;;15.94;87.69;99080.13;5029049;28;20061;-62
2022/07/08 02:01:23;;;;;;;2.42;1.20;;;;;;;15.83;86.73;99073.16;5037036;28;20045;-63
2022/07/08 02:04:08;;;;;;;1.92;1.10;;;;;;;15.85;88.25;99082.59;5026856;28;20058;-63
2022/07/08 02:06:53;;;;;;;2.42;1.10;;;;;;;15.79;87.72;99085.78;5027262;28;20057;-64
2022/07/08 02:09:38;;;;;;;1.30;0.90;;;;;;;15.81;87.75;99083.84;5035770;28;20037;-62
2022/07/08 02:12:23;;;;;;;1.98;1.23;;;;;;;15.94;88.63;99082.78;5040319;28;20042;-62
2022/07/08 02:15:09;;;;;;;1.70;1.20;;;;;;;15.80;88.51;99090.06;5025482;28;20087;-61
2022/07/08 02:17:54;;;;;;;1.33;0.98;;;;;;;15.94;88.29;99083.63;5026377;28;20042;-61
2022/07/08 02:20:39;;;;;;;1.50;1.20;;;;;;;15.75;88.39;99076.41;5027907;28;20073;-63
2022/07/08 02:23:23;;;;;;;2.00;1.00;;;;;;;15.77;89.83;99074.50;5041455;28;20051;-63
2022/07/08 02:26:08;;;;;;;1.65;1.00;;;;;;;15.81;88.64;99075.91;5037782;28;20048;-63
2022/07/08 02:28:53;;;;;;;1.10;1.00;;;;;;;15.71;89.46;99085.59;5025413;28;20058;-63
2022/07/08 02:31:38;;;;;;;1.42;1.02;;;;;;;15.76;90.31;99072.84;5012409;28;20114;-63
2022/07/08 02:34:22;;;;;;;2.40;1.10;;;;;;;15.63;89.47;99073.84;5041772;28;20045;-63
2022/07/08 02:37:08;;;;;;;1.85;1.00;;;;;;;15.75;89.61;99079.06;5018666;28;20041;-63
2022/07/08 02:39:52;;;;;;;1.83;1.15;;;;;;;15.58;90.42;99076.09;5029812;28;20112;-64
2022/07/08 02:42:37;;;;;;;1.88;1.30;;;;;;;15.61;90.62;99078.47;5012446;28;20055;-63
2022/07/08 02:45:22;;;;;;;1.55;1.25;;;;;;;15.55;90.01;99067.56;5012871;28;20057;-64
2022/07/08 02:48:07;;;;;;;1.58;1.40;;;;;;;15.58;90.77;99070.81;5011233;28;20045;-64
2022/07/08 02:50:51;;;;;;;1.25;1.00;;;;;;;15.57;91.17;99069.09;5027511;28;20048;-64
2022/07/08 02:53:36;;;;;;;3.30;1.30;;;;;;;15.46;91.05;99077.09;5021413;28;20129;-64
2022/07/08 02:56:21;;;;;;;2.05;1.35;;;;;;;15.46;91.47;99074.47;5021085;28;20520;-64
2022/07/08 02:59:06;;;;;;;1.70;1.15;;;;;;;15.47;91.08;99074.31;5012194;28;20045;-64
2022/07/08 03:01:51;;;;;;;2.70;1.25;;;;;;;15.45;90.93;99080.72;5012223;28;20406;-64
2022/07/08 03:04:35;;;;;;;1.85;1.10;;;;;;;15.43;91.19;99085.28;5021969;28;20065;-63
2022/07/08 03:07:20;;;;;;;2.92;1.30;;;;;;;15.49;91.56;99087.41;5027497;28;20042;-63
2022/07/08 03:10:06;;;;;;;1.98;1.10;;;;;;;15.50;91.16;99089.09;5035602;28;20229;-64
2022/07/08 03:12:50;;;;;;;1.73;1.30;;;;;;;15.61;90.85;99088.16;5019245;28;20046;-64
2022/07/08 03:15:35;;;;;;;1.52;1.30;;;;;;;15.67;90.93;99098.22;5028667;28;20060;-63
2022/07/08 03:18:20;;;;;;;1.58;1.10;;;;;;;15.68;91.42;99093.78;5024794;28;20068;-64
2022/07/08 03:21:07;;;;;;;2.00;1.80;;;;;;;15.47;90.88;99092.81;5011936;28;20046;-63
2022/07/08 03:23:52;;;;;;;1.98;1.48;;;;;;;15.55;91.09;99100.09;5011100;28;20065;-63
2022/07/08 03:26:36;;;;;;;3.10;1.50;;;;;;;15.49;90.87;99105.88;5028032;28;20064;-63
2022/07/08 03:29:21;;;;;;;2.53;1.40;;;;;;;15.47;91.16;99102.53;5049508;28;20051;-63
2022/07/08 03:32:06;;;;;;;1.73;1.50;;;;;;;15.36;91.40;99101.63;5031238;28;20167;-63
2022/07/08 03:34:50;;;;;;;1.83;1.50;;;;;;;15.43;91.75;99104.59;5027848;28;20116;-62
2022/07/08 03:37:40;;;;;;;3.63;1.30;;;;;;;15.59;91.99;99098.00;5021242;28;20053;-62
2022/07/08 03:43:28;;;;;;;2.30;1.65;;;;;;;15.59;90.10;99111.22;5042231;28;20045;-63
2022/07/08 03:46:12;;;;;;;2.35;1.95;;;;;;;15.52;90.61;99109.09;5031303;28;20087;-63
2022/07/08 03:49:03;;;;;;;2.25;1.70;;;;;;;15.57;90.88;99123.75;5029664;28;20065;-62
2022/07/08 03:51:48;;;;;;;1.65;1.33;;;;;;;15.71;90.38;99123.41;5031398;28;20038;-62
2022/07/08 03:54:32;;;;;;;1.75;1.27;;;;;;;15.77;90.53;99129.97;5018535;28;20412;-63
2022/07/08 03:57:17;;;;;;;2.20;1.70;;;;;;;15.73;89.93;99128.56;5030120;28;20064;-64
2022/07/08 04:00:04;;;;;;;1.92;1.55;;;;;;;15.76;89.94;99138.84;5044704;28;20053;-62
2022/07/08 04:02:49;;;;;;;2.05;1.65;;;;;;;15.67;90.60;99137.00;5025410;28;20045;-62
2022/07/08 04:05:37;;;;;;;2.13;1.60;;;;;;;15.68;90.64;99141.31;5025173;28;20041;-64
2022/07/08 04:08:24;;;;;;;2.95;1.48;;;;;;;15.67;90.60;99140.47;5030977;28;20128;-64
2022/07/08 04:11:10;;;;;;;2.30;1.50;;;;;;;15.88;89.92;99136.97;5030463;28;20053;-62
2022/07/08 04:13:56;;;;;;;2.38;1.52;;;;;;;15.76;90.30;99146.78;5020041;28;20145;-62
2022/07/08 04:16:40;;;;;;;1.85;1.50;;;;;;;15.76;90.54;99141.50;5011790;28;20067;-62
2022/07/08 04:19:25;;;;;;;2.30;1.52;;;;;;;15.80;90.64;99145.53;5011543;28;20042;-62
2022/07/08 04:22:10;;;;;;;2.00;1.70;;;;;;;15.72;90.63;99151.47;5030075;28;20457;-62
2022/07/08 04:24:54;;;;;;;2.90;1.58;;;;;;;15.81;90.57;99149.88;5029863;28;20041;-62
2022/07/08 04:27:39;;;;;;;2.63;1.90;;;;;;;15.66;91.32;99146.72;5034361;28;20066;-63
2022/07/08 04:30:24;;;;;;;1.80;1.60;;;;;;;15.69;91.72;99154.38;5012252;28;20046;-62
2022/07/08 04:33:10;;;;;;;2.90;1.70;;;;;;;15.60;91.09;99155.16;5028945;28;20366;-63
2022/07/08 04:35:55;;;;;;;1.60;1.50;;;;;;;15.86;91.35;99160.88;5022176;28;20041;-63
2022/07/08 04:38:39;;;;;;;3.08;1.83;;;;;;;15.79;90.76;99153.59;5034955;28;20445;-64
2022/07/08 04:41:24;;;;;;;3.10;2.13;;;;;;;15.60;91.34;99160.44;5035002;28;20045;-64
2022/07/08 04:44:08;;;;;;;1.95;1.73;;;;;;;15.70;91.11;99161.31;5034209;28;20057;-64
2022/07/08 04:46:53;;;;;;;3.28;1.75;;;;;;;15.83;90.95;99171.69;5034737;28;20379;-64
2022/07/08 04:49:38;;;;;;;1.90;1.48;;;;;;;16.16;90.82;99182.19;5031828;28;20049;-64
2022/07/08 04:52:24;;;;;;;2.30;1.95;;;;;;;16.24;88.16;99182.38;5024386;28;20048;-64
2022/07/08 04:55:27;;;;;;;2.25;1.67;;;;;;;16.03;90.05;99200.91;5026551;28;20066;-62
2022/07/08 04:58:12;;;;;;;2.70;1.58;;;;;;;16.37;88.88;99198.03;5022758;28;20112;-62
2022/07/08 05:00:57;;;;;;;1.50;1.10;;;;;;;16.57;89.48;99208.69;5034108;28;20041;-62
2022/07/08 05:03:41;;;;;;;2.80;1.65;;;;;;;16.63;88.62;99204.66;5032710;28;20096;-62
2022/07/08 05:06:26;;;;;;;1.75;1.45;;;;;;;16.63;86.94;99213.44;5019827;28;20049;-64
2022/07/08 05:09:13;;;;;;;2.13;1.90;;;;;;;16.07;89.23;99206.78;5044508;28;20041;-64
2022/07/08 05:11:58;;;;;;;3.72;1.60;;;;;;;16.57;88.06;99216.63;5036964;28;20045;-63
2022/07/08 05:14:43;;;;;;;2.40;2.10;;;;;;;16.50;86.76;99216.31;5028792;28;20351;-63
2022/07/08 05:17:27;;;;;;;2.60;2.00;;;;;;;16.57;87.30;99219.25;5026847;28;20041;-63
2022/07/08 05:20:12;;;;;;;2.90;1.98;;;;;;;16.38;87.58;99228.81;5021838;28;20417;-63
2022/07/08 05:22:57;;;;;;;2.30;1.65;;;;;;;16.79;86.04;99227.13;5020187;28;20050;-64
2022/07/08 05:25:41;;;;;;;3.00;1.83;;;;;;;16.68;86.13;99230.72;5033395;28;20052;-64
2022/07/08 05:28:29;;;;;;;2.28;1.63;;;;;;;17.17;84.85;99227.41;5040269;28;20058;-64
2022/07/08 05:31:13;;;;;;;2.92;2.22;;;;;;;17.01;83.96;99227.91;5028043;28;20050;-64
2022/07/08 05:33:58;;;;;;;3.55;2.00;;;;;;;16.79;85.87;99228.00;5031685;28;20042;-64
2022/07/08 05:36:43;;;;;;;2.72;1.85;;;;;;;16.91;86.53;99236.63;5016953;28;20037;-64
2022/07/08 05:39:28;;;;;;;2.63;1.90;;;;;;;16.76;86.18;99244.13;5036110;28;20568;-64
2022/07/08 05:42:15;;;;;;;3.38;1.95;;;;;;;16.85;85.80;99256.53;5032966;28;20041;-63
2022/07/08 05:45:00;;;;;;;3.72;2.25;;;;;;;16.57;87.23;99253.66;5028148;28;20067;-64
2022/07/08 05:47:44;;;;;;;3.25;2.10;;;;;;;16.76;86.33;99254.72;5031130;28;20037;-64
2022/07/08 05:50:29;;;;;;;5.25;2.70;;;;;;;16.80;86.38;99253.47;5046790;28;20044;-64
2022/07/08 05:53:17;;;;;;;3.80;2.30;;;;;;;16.74;86.20;99254.81;5027984;28;20046;-64
2022/07/08 05:56:02;;;;;;;4.30;2.03;;;;;;;16.78;85.53;99244.00;5020630;28;20041;-64
2022/07/08 05:58:46;;;;;;;7.03;2.22;;;;;;;16.86;85.59;99250.28;5032042;28;20099;-64
2022/07/08 06:01:31;;;;;;;2.63;1.90;;;;;;;17.06;84.11;99252.13;5045306;28;20110;-63
2022/07/08 06:04:15;;;;;;;3.20;2.10;;;;;;;17.24;83.76;99252.34;5018523;28;20048;-65
2022/07/08 06:07:00;;;;;;;6.07;2.15;;;;;;;17.58;80.75;99248.47;5032867;28;20144;-63
2022/07/08 06:09:45;;;;;;;3.25;2.50;;;;;;;17.94;78.86;99258.50;5032823;28;20045;-65
2022/07/08 06:12:30;;;;;;;2.20;1.90;;;;;;;18.77;75.19;99262.34;5007233;28;20532;-63
2022/07/08 06:15:17;;;;;;;2.08;1.70;;;;;;;19.29;72.99;99260.16;5031571;28;20463;-64
2022/07/08 06:18:02;;;;;;;3.55;2.22;;;;;;;18.82;73.95;99268.06;5030099;28;20045;-65
2022/07/08 06:20:47;;;;;;;3.53;1.58;;;;;;;18.85;75.04;99272.22;5031989;28;20045;-63
2022/07/08 06:23:32;;;;;;;2.92;2.13;;;;;;;19.01;73.06;99279.59;5017785;28;20042;-63
2022/07/08 06:26:17;;;;;;;2.70;2.10;;;;;;;18.90;74.03;99287.75;5011889;28;20045;-63
2022/07/08 06:29:06;;;;;;;2.53;2.03;;;;;;;19.32;72.28;99281.94;5038317;28;20053;-63
2022/07/08 06:31:56;;;;;;;1.80;1.60;;;;;;;19.45;71.47;99286.88;5013788;28;20065;-63
2022/07/08 06:34:46;;;;;;;2.47;1.60;;;;;;;19.33;72.96;99293.41;5031747;28;20037;-64
2022/07/08 06:37:34;;;;;;;3.55;2.13;;;;;;;18.55;73.65;99293.59;5032115;28;20057;-64
2022/07/08 06:40:21;;;;;;;2.03;1.65;;;;;;;18.88;73.08;99298.50;5016919;28;20060;-62
2022/07/08 06:43:05;;;;;;;2.08;1.75;;;;;;;18.93;73.63;99306.03;5026097;28;20041;-62
2022/07/08 06:45:50;;;;;;;2.08;1.65;;;;;;;18.57;73.62;99304.88;5021176;28;20512;-62
2022/07/08 06:48:35;;;;;;;3.10;1.58;;;;;;;18.36;75.57;99312.22;5029299;28;20133;-62
2022/07/08 06:51:19;;;;;;;1.60;1.45;;;;;;;18.52;74.66;99311.59;5023082;28;20044;-63
2022/07/08 06:57:08;;;;;;;3.22;1.75;;;;;;;18.80;72.37;99309.00;5031024;28;20052;-63
2022/07/08 06:59:52;;;;;;;2.05;1.75;;;;;;;19.06;71.81;99311.00;5030820;28;20458;-63
2022/07/08 07:02:37;;;;;;;2.33;1.60;;;;;;;18.81;72.53;99318.63;5028894;28;20076;-62
2022/07/08 07:05:21;;;;;;;2.60;1.63;;;;;;;19.02;70.76;99321.06;5005897;28;20504;-64
2022/07/08 07:08:06;;;;;;;2.50;1.60;;;;;;;18.62;72.26;99315.09;5022457;28;20037;-64
2022/07/08 07:10:51;;;;;;;3.38;1.48;;;;;;;18.48;76.28;99326.97;5028701;28;20042;-63
2022/07/08 07:13:36;;;;;;;1.77;1.40;;;;;;;18.78;75.71;99329.53;5029635;28;20103;-63
2022/07/08 07:16:21;;;;;;;1.50;1.30;;;;;;;18.42;76.68;99324.88;5014074;28;20042;-63
2022/07/08 07:19:05;;;;;;;1.45;1.00;;;;;;;18.68;78.33;99334.88;5027064;28;20409;-61
2022/07/08 07:21:50;;;;;;;1.10;1.00;;;;;;;18.72;76.38;99341.56;5020290;28;20041;-62
2022/07/08 07:24:35;;;;;;;1.23;0.90;;;;;;;18.63;76.09;99337.13;5028052;28;20041;-62
2022/07/08 07:27:20;;;;;;;2.15;1.27;;;;;;;18.69;77.97;99329.44;5029965;28;20061;-63
2022/07/08 07:30:05;;;;;;;1.02;0.82;;;;;;;19.61;71.30;99324.41;5020242;28;20049;-63
2022/07/08 07:32:51;;;;;;;1.15;0.90;;;;;;;20.20;68.92;99331.94;5028431;28;20512;-63
2022/07/08 07:35:37;;;;;;;1.00;0.80;;;;;;;20.78;67.00;99331.47;5012505;28;20088;-64
2022/07/08 07:38:21;;;;;;;0.95;0.85;;;;;;;20.29;68.83;99325.69;5011397;28;20041;-63
2022/07/08 07:41:06;;;;;;;0.98;0.70;;;;;;;20.40;67.71;99329.09;5023756;28;20053;-64
2022/07/08 07:43:51;;;;;;;1.02;0.82;;;;;;;19.44;70.89;99332.19;5023498;28;20065;-64
2022/07/08 07:46:36;;;;;;;1.90;1.00;;;;;;;19.31;71.81;99332.53;5023806;28;20401;-64
2022/07/08 07:49:21;;;;;;;1.25;0.90;;;;;;;19.88;70.37;99330.66;5001173;28;20045;-64
2022/07/08 07:52:06;;;;;;;1.20;0.82;;;;;;;20.61;67.59;99333.22;5023695;28;20076;-65
2022/07/08 07:54:51;;;;;;;1.90;0.93;;;;;;;20.30;68.12;99326.53;5003444;28;20050;-62
2022/07/08 07:57:36;;;;;;;3.63;1.05;;;;;;;20.23;69.07;99336.94;4983196;28;20116;-64
2022/07/08 08:00:21;;;;;;;2.25;1.25;;;;;;;19.96;68.99;99335.19;5005054;28;20058;-64
2022/07/08 08:03:06;;;;;;;1.42;1.00;;;;;;;19.45;70.53;99341.84;5024571;28;20052;-63
2022/07/08 08:05:51;;;;;;;1.75;1.23;;;;;;;19.20;70.88;99336.25;5043837;28;20413;-63
2022/07/08 08:08:36;;;;;;;1.40;1.00;;;;;;;19.40;71.11;99344.09;5016510;28;20054;-64
2022/07/08 08:11:21;;;;;;;2.67;1.10;;;;;;;19.18;70.95;99349.66;5023939;28;20034;-63
2022/07/08 08:14:06;;;;;;;1.77;1.27;;;;;;;19.29;70.83;99343.31;5007956;28;20423;-63
2022/07/08 08:16:50;;;;;;;1.92;1.35;;;;;;;19.31;70.97;99353.78;5023458;28;20068;-63
2022/07/08 08:19:38;;;;;;;1.75;1.10;;;;;;;19.64;70.35;99362.13;5025276;28;20403;-63
2022/07/08 08:22:26;;;;;;;1.65;1.20;;;;;;;19.74;70.62;99354.09;5021479;28;20468;-63
2022/07/08 08:25:11;;;;;;;1.30;1.00;;;;;;;20.87;67.17;99356.31;5022299;28;20096;-62
2022/07/08 08:27:56;;;;;;;2.58;1.23;;;;;;;21.69;61.47;99351.50;5032826;28;20060;-63
2022/07/08 08:30:41;;;;;;;2.53;1.10;;;;;;;21.80;61.71;99363.69;5018900;28;20077;-63
2022/07/08 08:33:26;;;;;;;4.55;1.40;;;;;;;22.22;60.17;99365.41;5017532;28;20050;-62
2022/07/08 08:36:10;;;;;;;2.53;1.33;;;;;;;22.68;57.59;99366.72;5034575;28;20060;-64
2022/07/08 08:38:55;;;;;;;2.05;1.25;;;;;;;22.66;57.04;99368.72;5033874;28;20053;-64
2022/07/08 08:41:41;;;;;;;2.95;1.10;;;;;;;22.05;59.21;99369.06;5019753;28;20049;-65
2022/07/08 08:44:26;;;;;;;4.10;1.00;;;;;;;22.89;57.68;99362.66;5022948;28;20121;-64
2022/07/08 08:47:13;;;;;;;3.50;1.10;;;;;;;23.30;57.93;99371.53;5019749;28;20056;-64
2022/07/08 08:53:03;;;;;;;6.93;1.10;;;;;;;21.39;61.93;99379.41;5034071;28;20050;-64
2022/07/08 08:55:51;;;;;;;3.28;1.15;;;;;;;22.99;55.59;99371.31;5014696;28;20092;-66
2022/07/08 08:58:40;;;;;;;2.60;1.00;;;;;;;22.64;56.02;99373.38;5028903;28;20050;-64
2022/07/08 09:01:24;;;;;;;2.88;1.40;;;;;;;23.50;52.32;99369.31;5032394;28;20091;-64
2022/07/08 09:04:10;;;;;;;1.60;0.77;;;;;;;23.77;54.36;99358.25;5020125;28;20068;-64
2022/07/08 09:06:55;;;;;;;2.00;1.20;;;;;;;23.79;52.79;99385.69;5032246;28;20046;-65
2022/07/08 09:09:39;;;;;;;1.10;0.80;;;;;;;22.69;56.88;99379.06;5025402;28;20038;-65
2022/07/08 09:12:25;;;;;;;2.60;1.33;;;;;;;21.64;58.81;99374.13;5031090;28;20108;-64
2022/07/08 09:15:10;;;;;;;25.35;3.67;;;;;;;22.49;56.35;99378.56;5033009;28;20496;-65
2022/07/08 09:17:55;;;;;;;4.93;1.38;;;;;;;23.00;54.42;99374.81;5020956;28;20053;-65
2022/07/08 09:21:01;;;;;;;3.00;1.23;;;;;;;21.39;60.20;99379.41;5030891;28;20068;-65
2022/07/08 09:23:46;;;;;;;3.58;1.20;;;;;;;23.49;54.70;99373.81;5026569;28;20045;-66
2022/07/08 09:26:31;;;;;;;4.18;1.40;;;;;;;24.32;51.90;99369.75;5020792;28;20045;-66
2022/07/08 09:29:16;;;;;;;2.30;1.00;;;;;;;22.64;55.04;99371.56;5032866;28;20073;-65
2022/07/08 09:32:11;;;;;;;2.25;1.05;;;;;;;22.66;55.17;99341.19;5030635;28;20045;-66
2022/07/08 09:34:55;;;;;;;3.40;1.00;;;;;;;22.71;56.20;99374.41;5028094;28;20112;-65
2022/07/08 09:37:52;;;;;;;1.73;1.00;;;;;;;22.19;57.04;99386.25;5010284;28;20065;-66
2022/07/08 09:40:40;;;;;;;4.43;1.33;;;;;;;23.26;57.29;99382.56;5040010;28;20049;-65
2022/07/08 09:43:26;;;;;;;3.25;1.10;;;;;;;23.26;53.86;99382.56;5025923;28;20042;-65
2022/07/08 09:46:10;;;;;;;3.35;1.20;;;;;;;22.44;57.24;99394.25;5015949;28;20042;-64
2022/07/08 09:48:55;;;;;;;3.17;1.10;;;;;;;23.09;54.31;99383.63;5029964;28;20041;-65
2022/07/08 09:51:41;;;;;;;2.65;0.88;;;;;;;23.16;53.29;99379.25;5021685;28;20064;-66
2022/07/08 09:54:28;;;;;;;2.70;0.95;;;;;;;23.47;52.06;99383.84;5030110;28;20095;-65
2022/07/08 09:57:13;;;;;;;2.10;0.93;;;;;;;23.35;56.42;99398.56;5024543;28;20393;-65
2022/07/08 09:59:58;;;;;;;2.65;0.85;;;;;;;23.13;52.91;99379.59;5027002;28;20042;-66
2022/07/08 10:02:44;;;;;;;2.58;1.00;;;;;;;23.42;51.92;99388.06;5043556;28;20066;-64
2022/07/08 10:05:29;;;;;;;2.45;1.08;;;;;;;23.84;54.35;99381.47;5030563;28;20038;-65
2022/07/08 10:08:15;;;;;;;1.17;0.77;;;;;;;24.65;49.95;99384.69;5031119;28;20084;-64
2022/07/08 10:11:06;;;;;;;2.00;1.00;;;;;;;23.33;52.25;99393.41;5014152;28;20046;-64
2022/07/08 10:13:51;;;;;;;1.35;0.77;;;;;;;23.82;51.16;99398.69;5021087;28;20111;-65
2022/07/08 10:16:39;;;;;;;3.40;1.00;;;;;;;24.40;51.67;99394.78;5012236;28;20608;-65
2022/07/08 10:19:31;;;;;;;1.30;0.85;;;;;;;24.99;48.16;99395.91;5025837;28;20038;-64
2022/07/08 10:22:17;;;;;;;2.13;1.10;;;;;;;24.39;48.66;99396.63;5029680;28;20409;-65
2022/07/08 10:25:03;;;;;;;2.17;0.75;;;;;;;24.31;49.51;99392.19;5024039;28;20045;-65
2022/07/08 10:27:48;;;;;;;2.35;0.73;;;;;;;23.31;53.89;99416.78;5029396;28;20038;-66
2022/07/08 10:30:47;;;;;;;2.40;1.05;;;;;;;21.82;55.90;99421.19;5031543;28;20383;-64
2022/07/08 10:33:47;;;;;;;2.92;0.80;;;;;;;23.36;51.86;99405.56;5034135;28;20049;-65
2022/07/08 10:36:43;;;;;;;2.13;0.95;;;;;;;23.48;51.51;99411.41;5017037;28;20060;-67
2022/07/08 10:39:40;;;;;;;2.50;0.70;;;;;;;24.06;52.69;99412.91;5032556;28;20050;-66
2022/07/08 10:42:24;;;;;;;3.20;1.00;;;;;;;23.64;52.19;99418.50;5027065;28;20121;-66
2022/07/08 10:45:16;;;;;;;1.95;0.80;;;;;;;23.90;49.69;99420.03;5033585;28;20037;-64
2022/07/08 10:48:08;;;;;;;3.72;0.98;;;;;;;24.16;49.33;99415.38;5019518;28;20042;-65
2022/07/08 10:50:53;;;;;;;2.63;1.10;;;;;;;23.82;51.36;99428.94;5029914;28;20037;-65
2022/07/08 10:53:48;;;;;;;4.38;0.90;;;;;;;22.96;53.40;99430.44;5017947;28;20049;-65
2022/07/08 10:56:49;;;;;;;4.72;0.98;;;;;;;22.54;54.95;99442.13;5023234;28;20044;-65
2022/07/08 10:59:36;;;;;;;3.85;1.50;;;;;;;22.14;55.27;99448.94;5033112;28;20072;-65
2022/07/08 11:02:21;;;;;;;2.53;0.77;;;;;;;22.14;54.92;99440.94;5027497;28;20045;-65
2022/07/08 11:05:06;;;;;;;2.05;1.20;;;;;;;21.32;58.56;99454.78;5038898;28;20160;-66
2022/07/08 11:08:20;;;;;;;2.85;0.95;;;;;;;21.12;58.25;99453.19;5030520;28;20443;-65
2022/07/08 11:11:05;;;;;;;2.00;1.08;;;;;;;22.11;56.20;99461.75;5018446;28;20452;-66
2022/07/08 11:13:51;;;;;;;2.83;1.05;;;;;;;22.96;54.46;99450.97;5031579;28;20409;-66
2022/07/08 11:16:35;;;;;;;3.22;1.10;;;;;;;23.07;52.35;99439.91;5039632;28;20038;-66
2022/07/08 11:19:21;;;;;;;3.92;1.08;;;;;;;23.18;52.53;99449.41;5025292;28;20045;-66
2022/07/08 11:22:07;;;;;;;5.10;1.17;;;;;;;21.75;56.21;99452.13;5028946;28;20541;-66
2022/07/08 11:24:54;;;;;;;3.15;1.40;;;;;;;21.04;56.98;99456.63;5019333;28;20038;-65
2022/07/08 11:27:39;;;;;;;5.28;1.00;;;;;;;20.83;59.59;99470.28;5032734;28;20037;-66
2022/07/08 11:30:29;;;;;;;5.68;0.95;;;;;;;20.38;60.83;99466.75;5033152;28;20103;-65
2022/07/08 11:33:13;;;;;;;3.30;1.30;;;;;;;20.28;62.35;99461.50;5024903;28;20095;-65
2022/07/08 11:35:58;;;;;;;5.65;0.98;;;;;;;20.37;63.85;99462.44;5011518;28;20038;-64
2022/07/08 11:38:44;;;;;;;4.30;1.13;;;;;;;20.72;62.22;99462.53;5011995;28;20049;-65
2022/07/08 11:41:39;;;;;;;5.28;1.50;;;;;;;20.97;59.74;99476.06;5026202;28;20117;-67
2022/07/08 11:44:27;;;;;;;2.08;1.10;;;;;;;21.23;61.58;99465.41;5026890;28;20074;-66
2022/07/08 11:47:17;;;;;;;4.72;1.35;;;;;;;22.18;56.05;99468.09;5025275;28;20046;-65
2022/07/08 11:50:03;;;;;;;2.47;1.10;;;;;;;21.17;59.92;99445.56;5015479;28;20383;-65
2022/07/08 11:52:49;;;;;;;2.40;1.13;;;;;;;20.54;59.24;99458.91;5022165;28;20057;-65
2022/07/08 11:55:43;;;;;;;2.08;1.05;;;;;;;21.11;62.22;99448.00;5016244;28;20081;-65
2022/07/08 11:58:28;;;;;;;3.92;1.10;;;;;;;20.97;58.47;99447.59;5029993;28;20500;-66
2022/07/08 12:01:13;;;;;;;5.35;1.00;;;;;;;20.99;59.45;99456.25;5025197;28;20227;-66
2022/07/08 12:03:58;;;;;;;3.95;1.50;;;;;;;20.47;59.30;99457.84;5031524;28;20409;-66
2022/07/08 12:06:48;;;;;;;3.50;1.38;;;;;;;19.92;61.42;99446.31;5031799;28;20482;-67
2022/07/08 12:09:33;;;;;;;3.40;1.25;;;;;;;20.74;61.38;99463.22;5032800;28;20053;-66
2022/07/08 12:12:21;;;;;;;5.28;1.08;;;;;;;22.21;56.92;99458.94;5028965;28;20409;-64
2022/07/08 12:15:16;;;;;;;6.10;1.40;;;;;;;22.31;53.83;99459.59;5030624;28;20042;-65
2022/07/08 12:18:02;;;;;;;4.50;1.70;;;;;;;22.72;52.96;99445.47;5017059;28;20045;-65
2022/07/08 12:20:47;;;;;;;2.63;1.35;;;;;;;22.62;53.33;99460.84;5013113;28;20123;-64
2022/07/08 12:23:43;;;;;;;4.75;1.30;;;;;;;22.44;54.25;99472.47;5023280;28;20057;-64
2022/07/08 12:26:28;;;;;;;3.85;1.45;;;;;;;22.39;54.58;99461.47;5030599;28;20048;-64
2022/07/08 12:29:16;;;;;;;8.35;1.50;;;;;;;23.28;51.88;99472.41;5015947;28;20158;-63
2022/07/08 12:32:01;;;;;;;2.60;1.20;;;;;;;22.96;51.73;99464.31;5018617;28;20347;-64
2022/07/08 12:34:51;;;;;;;5.35;1.20;;;;;;;22.99;55.36;99462.16;5027221;28;20124;-64
2022/07/08 12:38:05;;;;;;;1.95;1.30;;;;;;;21.59;55.69;99468.91;4998270;28;20049;-67
2022/07/08 12:41:25;;;;;;;2.63;1.27;;;;;;;23.21;52.27;99448.22;5019646;28;20436;-67
2022/07/08 12:44:51;;;;;;;3.88;1.33;;;;;;;22.89;53.97;99445.44;5022598;28;20072;-67
2022/07/08 12:47:37;;;;;;;4.70;1.65;;;;;;;21.27;56.36;99468.56;5028985;28;20111;-66
2022/07/08 12:50:25;;;;;;;5.90;1.20;;;;;;;20.83;57.49;99474.75;5029338;28;20033;-66
2022/07/08 12:53:15;;;;;;;4.30;1.50;;;;;;;20.61;58.67;99467.13;5024037;28;20037;-65
2022/07/08 12:56:00;;;;;;;3.63;1.33;;;;;;;20.23;60.66;99464.63;5019447;28;20096;-68
2022/07/08 12:59:07;;;;;;;3.47;1.75;;;;;;;19.91;60.72;99448.13;5022635;28;20088;-66
2022/07/08 13:01:53;;;;;;;4.13;1.73;;;;;;;20.11;61.71;99449.88;5033583;28;20521;-65
2022/07/08 13:04:37;;;;;;;8.25;1.88;;;;;;;20.71;61.36;99458.22;5033329;28;20124;-65
2022/07/08 13:07:23;;;;;;;3.70;1.58;;;;;;;22.03;55.89;99454.59;5043289;28;20504;-64
2022/07/08 13:10:08;;;;;;;3.75;2.00;;;;;;;22.00;56.49;99437.06;5028883;28;20048;-64
2022/07/08 13:12:53;;;;;;;3.55;1.95;;;;;;;21.20;57.29;99441.72;5027467;28;20052;-65
2022/07/08 13:15:38;;;;;;;4.15;1.70;;;;;;;20.85;60.06;99448.81;5032696;28;20364;-65